sensor_id;sensor_type;location;lat;lon;timestamp;P1;durP1;ratioP1;P2;durP2;ratioP2
79668;SDS011;69136;52.614;6.976;2023-07-31T00:01:49;2.95;;;1.17;;
79668;SDS011;69136;52.614;6.976;2023-07-31T00:08:52;2.60;;;1.02;;
79668;SDS011;69136;52.614;6.976;2023-07-31T00:12:29;3.47;;;1.23;;
79668;SDS011;69136;52.614;6.976;2023-07-31T00:15:31;2.95;;;1.50;;
79668;SDS011;69136;52.614;6.976;2023-07-31T00:21:55;1.88;;;1.15;;
79668;SDS011;69136;52.614;6.976;2023-07-31T00:25:00;3.00;;;1.42;;
79668;SDS011;69136;52.614;6.976;2023-07-31T00:28:00;2.03;;;1.10;;
79668;SDS011;69136;52.614;6.976;2023-07-31T00:35:06;1.70;;;1.08;;
79668;SDS011;69136;52.614;6.976;2023-07-31T00:41:47;2.03;;;1.10;;
79668;SDS011;69136;52.614;6.976;2023-07-31T00:49:06;1.60;;;1.00;;
79668;SDS011;69136;52.614;6.976;2023-07-31T00:52:37;2.17;;;1.00;;
79668;SDS011;69136;52.614;6.976;2023-07-31T00:55:26;1.42;;;0.90;;
79668;SDS011;69136;52.614;6.976;2023-07-31T00:58:14;1.25;;;0.82;;
79668;SDS011;69136;52.614;6.976;2023-07-31T01:01:54;3.95;;;1.58;;
79668;SDS011;69136;52.614;6.976;2023-07-31T01:04:49;1.52;;;1.02;;
79668;SDS011;69136;52.614;6.976;2023-07-31T01:07:44;1.83;;;1.10;;
79668;SDS011;69136;52.614;6.976;2023-07-31T01:12:09;1.45;;;0.85;;
79668;SDS011;69136;52.614;6.976;2023-07-31T01:15:34;1.52;;;0.90;;
79668;SDS011;69136;52.614;6.976;2023-07-31T01:18:57;1.60;;;0.82;;
79668;SDS011;69136;52.614;6.976;2023-07-31T01:32:58;1.10;;;0.73;;
79668;SDS011;69136;52.614;6.976;2023-07-31T01:36:00;0.95;;;0.55;;
79668;SDS011;69136;52.614;6.976;2023-07-31T01:38:57;1.00;;;0.52;;
79668;SDS011;69136;52.614;6.976;2023-07-31T01:42:03;2.42;;;0.80;;
79668;SDS011;69136;52.614;6.976;2023-07-31T01:46:16;1.98;;;0.60;;
79668;SDS011;69136;52.614;6.976;2023-07-31T01:50:09;0.85;;;0.50;;
79668;SDS011;69136;52.614;6.976;2023-07-31T01:53:01;1.10;;;0.80;;
79668;SDS011;69136;52.614;6.976;2023-07-31T01:59:58;2.17;;;0.77;;
79668;SDS011;69136;52.614;6.976;2023-07-31T02:03:05;1.50;;;0.55;;
79668;SDS011;69136;52.614;6.976;2023-07-31T02:06:04;1.17;;;0.60;;
79668;SDS011;69136;52.614;6.976;2023-07-31T02:08:59;1.00;;;0.65;;
79668;SDS011;69136;52.614;6.976;2023-07-31T02:12:16;1.08;;;0.50;;
79668;SDS011;69136;52.614;6.976;2023-07-31T02:15:24;0.82;;;0.40;;
79668;SDS011;69136;52.614;6.976;2023-07-31T02:18:23;1.08;;;0.40;;
79668;SDS011;69136;52.614;6.976;2023-07-31T02:21:07;0.88;;;0.43;;
79668;SDS011;69136;52.614;6.976;2023-07-31T02:23:52;1.85;;;0.60;;
79668;SDS011;69136;52.614;6.976;2023-07-31T02:26:46;0.75;;;0.40;;
79668;SDS011;69136;52.614;6.976;2023-07-31T02:29:30;0.77;;;0.50;;
79668;SDS011;69136;52.614;6.976;2023-07-31T02:32:14;1.00;;;0.60;;
79668;SDS011;69136;52.614;6.976;2023-07-31T02:34:59;0.63;;;0.43;;
79668;SDS011;69136;52.614;6.976;2023-07-31T02:37:43;1.02;;;0.40;;
79668;SDS011;69136;52.614;6.976;2023-07-31T02:40:27;0.70;;;0.40;;
79668;SDS011;69136;52.614;6.976;2023-07-31T02:43:12;0.43;;;0.43;;
79668;SDS011;69136;52.614;6.976;2023-07-31T02:45:56;1.65;;;0.60;;
79668;SDS011;69136;52.614;6.976;2023-07-31T02:48:41;0.50;;;0.40;;
79668;SDS011;69136;52.614;6.976;2023-07-31T02:51:25;0.93;;;0.52;;
79668;SDS011;69136;52.614;6.976;2023-07-31T02:54:09;1.40;;;0.50;;
79668;SDS011;69136;52.614;6.976;2023-07-31T02:56:54;0.20;;;0.20;;
79668;SDS011;69136;52.614;6.976;2023-07-31T02:59:39;1.13;;;0.73;;
79668;SDS011;69136;52.614;6.976;2023-07-31T03:02:24;0.80;;;0.50;;
79668;SDS011;69136;52.614;6.976;2023-07-31T03:05:08;0.65;;;0.45;;
79668;SDS011;69136;52.614;6.976;2023-07-31T03:07:52;0.70;;;0.55;;
79668;SDS011;69136;52.614;6.976;2023-07-31T03:10:36;0.90;;;0.60;;
79668;SDS011;69136;52.614;6.976;2023-07-31T03:13:20;0.88;;;0.38;;
79668;SDS011;69136;52.614;6.976;2023-07-31T03:16:04;0.63;;;0.50;;
79668;SDS011;69136;52.614;6.976;2023-07-31T03:18:49;0.80;;;0.50;;
79668;SDS011;69136;52.614;6.976;2023-07-31T03:21:33;0.63;;;0.40;;
79668;SDS011;69136;52.614;6.976;2023-07-31T03:24:17;0.50;;;0.40;;
79668;SDS011;69136;52.614;6.976;2023-07-31T03:27:01;0.73;;;0.40;;
79668;SDS011;69136;52.614;6.976;2023-07-31T03:29:46;1.02;;;0.63;;
79668;SDS011;69136;52.614;6.976;2023-07-31T03:32:30;1.85;;;0.70;;
79668;SDS011;69136;52.614;6.976;2023-07-31T03:35:14;0.80;;;0.70;;
79668;SDS011;69136;52.614;6.976;2023-07-31T03:37:59;0.93;;;0.80;;
79668;SDS011;69136;52.614;6.976;2023-07-31T03:40:43;0.90;;;0.70;;
79668;SDS011;69136;52.614;6.976;2023-07-31T03:43:28;1.00;;;0.85;;
79668;SDS011;69136;52.614;6.976;2023-07-31T03:46:12;0.70;;;0.68;;
79668;SDS011;69136;52.614;6.976;2023-07-31T03:48:57;1.23;;;0.80;;
79668;SDS011;69136;52.614;6.976;2023-07-31T03:51:41;1.13;;;0.60;;
79668;SDS011;69136;52.614;6.976;2023-07-31T03:54:25;1.40;;;0.60;;
79668;SDS011;69136;52.614;6.976;2023-07-31T03:57:09;1.05;;;0.55;;
79668;SDS011;69136;52.614;6.976;2023-07-31T03:59:53;4.63;;;1.17;;
79668;SDS011;69136;52.614;6.976;2023-07-31T04:02:37;1.55;;;0.65;;
79668;SDS011;69136;52.614;6.976;2023-07-31T04:05:21;1.08;;;0.60;;
79668;SDS011;69136;52.614;6.976;2023-07-31T04:08:06;1.15;;;0.70;;
79668;SDS011;69136;52.614;6.976;2023-07-31T04:10:50;1.33;;;0.70;;
79668;SDS011;69136;52.614;6.976;2023-07-31T04:13:34;1.30;;;0.88;;
79668;SDS011;69136;52.614;6.976;2023-07-31T04:16:19;3.22;;;1.65;;
79668;SDS011;69136;52.614;6.976;2023-07-31T04:19:03;4.63;;;1.80;;
79668;SDS011;69136;52.614;6.976;2023-07-31T04:21:48;6.20;;;2.10;;
79668;SDS011;69136;52.614;6.976;2023-07-31T04:24:32;7.68;;;2.15;;
79668;SDS011;69136;52.614;6.976;2023-07-31T04:27:17;4.03;;;2.22;;
79668;SDS011;69136;52.614;6.976;2023-07-31T04:30:01;5.82;;;2.50;;
79668;SDS011;69136;52.614;6.976;2023-07-31T04:32:46;6.22;;;3.05;;
79668;SDS011;69136;52.614;6.976;2023-07-31T04:35:30;8.45;;;3.17;;
79668;SDS011;69136;52.614;6.976;2023-07-31T04:38:13;6.25;;;2.63;;
79668;SDS011;69136;52.614;6.976;2023-07-31T04:40:57;10.30;;;3.47;;
79668;SDS011;69136;52.614;6.976;2023-07-31T04:43:42;8.68;;;3.08;;
79668;SDS011;69136;52.614;6.976;2023-07-31T04:46:26;6.05;;;3.10;;
79668;SDS011;69136;52.614;6.976;2023-07-31T04:49:11;6.20;;;3.10;;
79668;SDS011;69136;52.614;6.976;2023-07-31T04:51:55;7.55;;;2.95;;
79668;SDS011;69136;52.614;6.976;2023-07-31T04:54:39;9.18;;;3.85;;
79668;SDS011;69136;52.614;6.976;2023-07-31T04:57:24;7.22;;;3.03;;
79668;SDS011;69136;52.614;6.976;2023-07-31T05:00:08;6.53;;;2.85;;
79668;SDS011;69136;52.614;6.976;2023-07-31T05:02:53;8.50;;;3.95;;
79668;SDS011;69136;52.614;6.976;2023-07-31T05:05:36;9.00;;;3.75;;
79668;SDS011;69136;52.614;6.976;2023-07-31T05:08:21;12.70;;;4.70;;
79668;SDS011;69136;52.614;6.976;2023-07-31T05:11:05;9.02;;;3.45;;
79668;SDS011;69136;52.614;6.976;2023-07-31T05:13:49;6.60;;;3.50;;
79668;SDS011;69136;52.614;6.976;2023-07-31T05:16:33;11.18;;;4.32;;
79668;SDS011;69136;52.614;6.976;2023-07-31T05:19:17;10.25;;;4.40;;
79668;SDS011;69136;52.614;6.976;2023-07-31T05:22:01;12.65;;;4.32;;
79668;SDS011;69136;52.614;6.976;2023-07-31T05:24:46;8.82;;;4.05;;
79668;SDS011;69136;52.614;6.976;2023-07-31T05:27:31;10.60;;;4.60;;
79668;SDS011;69136;52.614;6.976;2023-07-31T05:30:16;10.60;;;5.03;;
79668;SDS011;69136;52.614;6.976;2023-07-31T05:33:00;14.63;;;4.97;;
79668;SDS011;69136;52.614;6.976;2023-07-31T05:35:44;14.10;;;5.38;;
79668;SDS011;69136;52.614;6.976;2023-07-31T05:38:28;14.02;;;4.70;;
79668;SDS011;69136;52.614;6.976;2023-07-31T05:41:13;9.75;;;5.45;;
79668;SDS011;69136;52.614;6.976;2023-07-31T05:43:58;16.13;;;5.70;;
79668;SDS011;69136;52.614;6.976;2023-07-31T05:46:42;15.57;;;5.53;;
79668;SDS011;69136;52.614;6.976;2023-07-31T05:49:26;12.77;;;5.35;;
79668;SDS011;69136;52.614;6.976;2023-07-31T05:52:12;17.75;;;6.07;;
79668;SDS011;69136;52.614;6.976;2023-07-31T05:54:57;15.20;;;5.65;;
79668;SDS011;69136;52.614;6.976;2023-07-31T05:57:41;17.10;;;6.10;;
79668;SDS011;69136;52.614;6.976;2023-07-31T06:00:25;14.00;;;5.20;;
79668;SDS011;69136;52.614;6.976;2023-07-31T06:03:09;18.98;;;6.35;;
79668;SDS011;69136;52.614;6.976;2023-07-31T06:05:54;18.40;;;6.10;;
79668;SDS011;69136;52.614;6.976;2023-07-31T06:08:38;15.95;;;5.88;;
79668;SDS011;69136;52.614;6.976;2023-07-31T06:11:22;17.13;;;6.22;;
79668;SDS011;69136;52.614;6.976;2023-07-31T06:14:06;15.07;;;6.30;;
79668;SDS011;69136;52.614;6.976;2023-07-31T06:16:51;14.95;;;5.70;;
79668;SDS011;69136;52.614;6.976;2023-07-31T06:19:35;16.80;;;6.15;;
79668;SDS011;69136;52.614;6.976;2023-07-31T06:22:19;16.88;;;5.97;;
79668;SDS011;69136;52.614;6.976;2023-07-31T06:25:04;18.17;;;6.03;;
79668;SDS011;69136;52.614;6.976;2023-07-31T06:27:48;16.70;;;6.07;;
79668;SDS011;69136;52.614;6.976;2023-07-31T06:30:32;16.90;;;6.40;;
79668;SDS011;69136;52.614;6.976;2023-07-31T06:33:16;19.13;;;6.72;;
79668;SDS011;69136;52.614;6.976;2023-07-31T06:36:00;13.50;;;5.18;;
79668;SDS011;69136;52.614;6.976;2023-07-31T06:38:45;15.73;;;6.13;;
79668;SDS011;69136;52.614;6.976;2023-07-31T06:41:34;16.38;;;5.90;;
79668;SDS011;69136;52.614;6.976;2023-07-31T06:44:23;18.20;;;5.35;;
79668;SDS011;69136;52.614;6.976;2023-07-31T06:47:11;14.77;;;5.93;;
79668;SDS011;69136;52.614;6.976;2023-07-31T06:49:55;16.40;;;5.38;;
79668;SDS011;69136;52.614;6.976;2023-07-31T06:52:40;18.38;;;6.50;;
79668;SDS011;69136;52.614;6.976;2023-07-31T06:55:25;15.38;;;5.60;;
79668;SDS011;69136;52.614;6.976;2023-07-31T06:58:09;17.48;;;6.10;;
79668;SDS011;69136;52.614;6.976;2023-07-31T07:00:54;14.70;;;6.25;;
79668;SDS011;69136;52.614;6.976;2023-07-31T07:03:38;14.05;;;5.03;;
79668;SDS011;69136;52.614;6.976;2023-07-31T07:06:22;11.65;;;5.68;;
79668;SDS011;69136;52.614;6.976;2023-07-31T07:09:11;10.40;;;5.15;;
79668;SDS011;69136;52.614;6.976;2023-07-31T07:11:56;13.38;;;4.75;;
79668;SDS011;69136;52.614;6.976;2023-07-31T07:14:43;12.15;;;5.25;;
79668;SDS011;69136;52.614;6.976;2023-07-31T07:17:30;10.68;;;5.05;;
79668;SDS011;69136;52.614;6.976;2023-07-31T07:23:11;8.27;;;4.90;;
79668;SDS011;69136;52.614;6.976;2023-07-31T07:25:55;12.90;;;5.10;;
79668;SDS011;69136;52.614;6.976;2023-07-31T07:28:39;12.30;;;4.20;;
79668;SDS011;69136;52.614;6.976;2023-07-31T07:31:24;11.45;;;4.28;;
79668;SDS011;69136;52.614;6.976;2023-07-31T07:34:16;10.43;;;4.70;;
79668;SDS011;69136;52.614;6.976;2023-07-31T07:37:06;8.25;;;4.45;;
79668;SDS011;69136;52.614;6.976;2023-07-31T07:39:49;6.82;;;3.85;;
79668;SDS011;69136;52.614;6.976;2023-07-31T07:42:36;14.13;;;3.80;;
79668;SDS011;69136;52.614;6.976;2023-07-31T07:45:24;7.05;;;3.35;;
79668;SDS011;69136;52.614;6.976;2023-07-31T07:48:08;8.40;;;3.25;;
79668;SDS011;69136;52.614;6.976;2023-07-31T07:51:55;7.00;;;3.10;;
79668;SDS011;69136;52.614;6.976;2023-07-31T07:54:40;7.15;;;3.38;;
79668;SDS011;69136;52.614;6.976;2023-07-31T07:57:24;6.65;;;3.53;;
79668;SDS011;69136;52.614;6.976;2023-07-31T08:00:19;6.25;;;3.03;;
79668;SDS011;69136;52.614;6.976;2023-07-31T08:03:05;9.13;;;3.17;;
79668;SDS011;69136;52.614;6.976;2023-07-31T08:05:49;5.43;;;3.28;;
79668;SDS011;69136;52.614;6.976;2023-07-31T08:08:33;5.60;;;2.78;;
79668;SDS011;69136;52.614;6.976;2023-07-31T08:11:17;5.97;;;2.67;;
79668;SDS011;69136;52.614;6.976;2023-07-31T08:14:01;7.20;;;2.60;;
79668;SDS011;69136;52.614;6.976;2023-07-31T08:16:49;5.55;;;2.83;;
79668;SDS011;69136;52.614;6.976;2023-07-31T08:19:38;4.32;;;2.63;;
79668;SDS011;69136;52.614;6.976;2023-07-31T08:22:22;4.50;;;2.42;;
79668;SDS011;69136;52.614;6.976;2023-07-31T08:25:09;4.43;;;2.53;;
79668;SDS011;69136;52.614;6.976;2023-07-31T08:27:55;4.45;;;2.33;;
79668;SDS011;69136;52.614;6.976;2023-07-31T08:30:45;4.97;;;1.98;;
79668;SDS011;69136;52.614;6.976;2023-07-31T08:33:34;8.98;;;2.28;;
79668;SDS011;69136;52.614;6.976;2023-07-31T08:36:25;6.00;;;2.30;;
79668;SDS011;69136;52.614;6.976;2023-07-31T08:39:16;3.25;;;1.85;;
79668;SDS011;69136;52.614;6.976;2023-07-31T08:42:07;6.78;;;2.53;;
79668;SDS011;69136;52.614;6.976;2023-07-31T08:44:55;3.08;;;1.92;;
79668;SDS011;69136;52.614;6.976;2023-07-31T08:47:49;5.53;;;1.70;;
79668;SDS011;69136;52.614;6.976;2023-07-31T08:50:59;2.88;;;1.50;;
79668;SDS011;69136;52.614;6.976;2023-07-31T08:53:49;3.58;;;1.67;;
79668;SDS011;69136;52.614;6.976;2023-07-31T09:01:05;2.03;;;1.10;;
79668;SDS011;69136;52.614;6.976;2023-07-31T09:11:59;4.57;;;1.10;;
79668;SDS011;69136;52.614;6.976;2023-07-31T09:15:01;1.58;;;1.10;;
79668;SDS011;69136;52.614;6.976;2023-07-31T09:17:59;1.25;;;0.93;;
79668;SDS011;69136;52.614;6.976;2023-07-31T09:21:04;1.97;;;1.10;;
79668;SDS011;69136;52.614;6.976;2023-07-31T09:28:31;1.50;;;0.90;;
79668;SDS011;69136;52.614;6.976;2023-07-31T09:34:28;2.08;;;0.73;;
79668;SDS011;69136;52.614;6.976;2023-07-31T09:37:37;1.25;;;1.13;;
79668;SDS011;69136;52.614;6.976;2023-07-31T09:40:32;0.32;;;0.30;;
79668;SDS011;69136;52.614;6.976;2023-07-31T09:43:28;1.67;;;0.45;;
79668;SDS011;69136;52.614;6.976;2023-07-31T09:46:22;1.42;;;0.40;;
79668;SDS011;69136;52.614;6.976;2023-07-31T09:52:29;0.77;;;0.50;;
79668;SDS011;69136;52.614;6.976;2023-07-31T09:55:13;1.15;;;0.60;;
79668;SDS011;69136;52.614;6.976;2023-07-31T09:58:15;0.93;;;0.40;;
79668;SDS011;69136;52.614;6.976;2023-07-31T10:01:55;0.50;;;0.43;;
79668;SDS011;69136;52.614;6.976;2023-07-31T10:04:40;0.95;;;0.60;;
79668;SDS011;69136;52.614;6.976;2023-07-31T10:07:27;0.50;;;0.43;;
79668;SDS011;69136;52.614;6.976;2023-07-31T10:10:28;0.60;;;0.50;;
79668;SDS011;69136;52.614;6.976;2023-07-31T10:13:12;1.52;;;0.60;;
79668;SDS011;69136;52.614;6.976;2023-07-31T10:16:00;0.75;;;0.75;;
79668;SDS011;69136;52.614;6.976;2023-07-31T10:18:45;1.58;;;0.75;;
79668;SDS011;69136;52.614;6.976;2023-07-31T10:21:29;0.90;;;0.60;;
79668;SDS011;69136;52.614;6.976;2023-07-31T10:24:13;1.40;;;0.77;;
79668;SDS011;69136;52.614;6.976;2023-07-31T10:27:00;1.00;;;0.80;;
79668;SDS011;69136;52.614;6.976;2023-07-31T10:29:46;0.80;;;0.80;;
79668;SDS011;69136;52.614;6.976;2023-07-31T10:32:35;1.25;;;0.95;;
79668;SDS011;69136;52.614;6.976;2023-07-31T10:35:23;0.88;;;0.60;;
79668;SDS011;69136;52.614;6.976;2023-07-31T10:38:11;0.73;;;0.70;;
79668;SDS011;69136;52.614;6.976;2023-07-31T10:44:11;0.68;;;0.63;;
79668;SDS011;69136;52.614;6.976;2023-07-31T10:46:57;0.70;;;0.70;;
79668;SDS011;69136;52.614;6.976;2023-07-31T10:49:44;0.63;;;0.60;;
79668;SDS011;69136;52.614;6.976;2023-07-31T10:53:07;2.28;;;0.90;;
79668;SDS011;69136;52.614;6.976;2023-07-31T10:56:12;0.90;;;0.77;;
79668;SDS011;69136;52.614;6.976;2023-07-31T10:59:02;1.08;;;0.80;;
79668;SDS011;69136;52.614;6.976;2023-07-31T11:02:01;1.02;;;0.80;;
79668;SDS011;69136;52.614;6.976;2023-07-31T11:09:08;1.15;;;0.85;;
79668;SDS011;69136;52.614;6.976;2023-07-31T11:13:28;1.60;;;0.88;;
79668;SDS011;69136;52.614;6.976;2023-07-31T11:17:18;1.58;;;1.05;;
79668;SDS011;69136;52.614;6.976;2023-07-31T11:20:08;1.63;;;1.25;;
79668;SDS011;69136;52.614;6.976;2023-07-31T11:23:16;1.77;;;1.10;;
79668;SDS011;69136;52.614;6.976;2023-07-31T11:29:51;1.15;;;0.90;;
79668;SDS011;69136;52.614;6.976;2023-07-31T11:32:44;1.63;;;1.30;;
79668;SDS011;69136;52.614;6.976;2023-07-31T11:35:31;1.52;;;1.40;;
79668;SDS011;69136;52.614;6.976;2023-07-31T11:38:31;1.88;;;1.50;;
79668;SDS011;69136;52.614;6.976;2023-07-31T11:41:40;2.45;;;1.85;;
79668;SDS011;69136;52.614;6.976;2023-07-31T11:44:39;2.58;;;1.63;;
79668;SDS011;69136;52.614;6.976;2023-07-31T11:47:31;2.33;;;2.03;;
79668;SDS011;69136;52.614;6.976;2023-07-31T11:50:23;2.90;;;2.20;;
79668;SDS011;69136;52.614;6.976;2023-07-31T11:53:11;2.70;;;2.20;;
79668;SDS011;69136;52.614;6.976;2023-07-31T11:56:02;4.30;;;2.38;;
79668;SDS011;69136;52.614;6.976;2023-07-31T12:01:56;3.03;;;2.60;;
79668;SDS011;69136;52.614;6.976;2023-07-31T12:04:50;4.35;;;2.92;;
79668;SDS011;69136;52.614;6.976;2023-07-31T12:07:44;4.22;;;3.22;;
79668;SDS011;69136;52.614;6.976;2023-07-31T12:11:04;5.10;;;3.92;;
79668;SDS011;69136;52.614;6.976;2023-07-31T12:14:04;5.95;;;4.18;;
79668;SDS011;69136;52.614;6.976;2023-07-31T12:17:04;5.25;;;4.13;;
79668;SDS011;69136;52.614;6.976;2023-07-31T12:20:04;4.88;;;4.03;;
79668;SDS011;69136;52.614;6.976;2023-07-31T12:22:48;7.65;;;4.88;;
79668;SDS011;69136;52.614;6.976;2023-07-31T12:25:54;6.53;;;5.10;;
79668;SDS011;69136;52.614;6.976;2023-07-31T12:29:12;7.35;;;4.60;;
79668;SDS011;69136;52.614;6.976;2023-07-31T12:32:22;6.20;;;4.75;;
79668;SDS011;69136;52.614;6.976;2023-07-31T12:36:00;5.00;;;4.25;;
79668;SDS011;69136;52.614;6.976;2023-07-31T12:38:54;5.70;;;4.68;;
79668;SDS011;69136;52.614;6.976;2023-07-31T12:45:57;6.95;;;5.90;;
79668;SDS011;69136;52.614;6.976;2023-07-31T12:48:51;5.95;;;4.85;;
79668;SDS011;69136;52.614;6.976;2023-07-31T12:52:08;8.93;;;6.03;;
79668;SDS011;69136;52.614;6.976;2023-07-31T12:54:59;13.98;;;8.18;;
79668;SDS011;69136;52.614;6.976;2023-07-31T12:57:43;4.97;;;4.25;;
79668;SDS011;69136;52.614;6.976;2023-07-31T13:00:36;6.20;;;4.53;;
79668;SDS011;69136;52.614;6.976;2023-07-31T13:03:41;5.55;;;4.68;;
79668;SDS011;69136;52.614;6.976;2023-07-31T13:06:29;7.22;;;5.30;;
79668;SDS011;69136;52.614;6.976;2023-07-31T13:09:13;7.13;;;4.57;;
79668;SDS011;69136;52.614;6.976;2023-07-31T13:12:04;6.22;;;4.68;;
79668;SDS011;69136;52.614;6.976;2023-07-31T13:15:04;7.35;;;5.05;;
79668;SDS011;69136;52.614;6.976;2023-07-31T13:17:54;7.75;;;5.65;;
79668;SDS011;69136;52.614;6.976;2023-07-31T13:20:47;5.78;;;5.05;;
79668;SDS011;69136;52.614;6.976;2023-07-31T13:23:32;5.93;;;4.68;;
79668;SDS011;69136;52.614;6.976;2023-07-31T13:29:57;5.85;;;5.10;;
79668;SDS011;69136;52.614;6.976;2023-07-31T13:32:54;5.75;;;5.15;;
79668;SDS011;69136;52.614;6.976;2023-07-31T13:35:42;6.20;;;5.13;;
79668;SDS011;69136;52.614;6.976;2023-07-31T13:38:26;6.45;;;4.80;;
79668;SDS011;69136;52.614;6.976;2023-07-31T13:44:35;6.13;;;4.45;;
79668;SDS011;69136;52.614;6.976;2023-07-31T13:47:20;5.82;;;4.45;;
79668;SDS011;69136;52.614;6.976;2023-07-31T13:50:07;6.00;;;4.05;;
79668;SDS011;69136;52.614;6.976;2023-07-31T13:52:51;5.85;;;3.85;;
79668;SDS011;69136;52.614;6.976;2023-07-31T13:55:36;4.82;;;3.00;;
79668;SDS011;69136;52.614;6.976;2023-07-31T13:58:20;4.07;;;2.92;;
79668;SDS011;69136;52.614;6.976;2023-07-31T14:01:05;3.00;;;2.70;;
79668;SDS011;69136;52.614;6.976;2023-07-31T14:03:49;3.67;;;2.17;;
79668;SDS011;69136;52.614;6.976;2023-07-31T14:06:33;1.88;;;1.50;;
79668;SDS011;69136;52.614;6.976;2023-07-31T14:09:18;1.67;;;1.33;;
79668;SDS011;69136;52.614;6.976;2023-07-31T14:12:03;1.80;;;1.60;;
79668;SDS011;69136;52.614;6.976;2023-07-31T14:14:50;1.70;;;1.60;;
79668;SDS011;69136;52.614;6.976;2023-07-31T14:17:34;3.08;;;1.83;;
79668;SDS011;69136;52.614;6.976;2023-07-31T14:20:18;2.78;;;2.08;;
79668;SDS011;69136;52.614;6.976;2023-07-31T14:23:03;2.40;;;2.20;;
79668;SDS011;69136;52.614;6.976;2023-07-31T14:25:47;2.13;;;1.92;;
79668;SDS011;69136;52.614;6.976;2023-07-31T14:28:32;2.83;;;2.20;;
79668;SDS011;69136;52.614;6.976;2023-07-31T14:31:16;3.53;;;2.45;;
79668;SDS011;69136;52.614;6.976;2023-07-31T14:34:00;2.50;;;2.10;;
79668;SDS011;69136;52.614;6.976;2023-07-31T14:36:46;2.92;;;2.03;;
79668;SDS011;69136;52.614;6.976;2023-07-31T14:39:32;2.60;;;2.08;;
79668;SDS011;69136;52.614;6.976;2023-07-31T14:42:17;2.00;;;1.80;;
79668;SDS011;69136;52.614;6.976;2023-07-31T14:45:08;2.45;;;2.00;;
79668;SDS011;69136;52.614;6.976;2023-07-31T14:47:54;3.28;;;1.85;;
79668;SDS011;69136;52.614;6.976;2023-07-31T14:50:38;2.85;;;2.60;;
79668;SDS011;69136;52.614;6.976;2023-07-31T14:53:25;3.45;;;2.70;;
79668;SDS011;69136;52.614;6.976;2023-07-31T14:56:12;4.70;;;3.50;;
79668;SDS011;69136;52.614;6.976;2023-07-31T14:59:03;4.72;;;4.00;;
79668;SDS011;69136;52.614;6.976;2023-07-31T15:01:56;6.60;;;4.68;;
79668;SDS011;69136;52.614;6.976;2023-07-31T15:04:46;5.88;;;4.15;;
79668;SDS011;69136;52.614;6.976;2023-07-31T15:07:38;5.63;;;4.90;;
79668;SDS011;69136;52.614;6.976;2023-07-31T15:10:32;5.88;;;4.30;;
79668;SDS011;69136;52.614;6.976;2023-07-31T15:13:18;6.57;;;4.28;;
79668;SDS011;69136;52.614;6.976;2023-07-31T15:16:08;4.55;;;3.85;;
79668;SDS011;69136;52.614;6.976;2023-07-31T15:18:53;5.65;;;4.40;;
79668;SDS011;69136;52.614;6.976;2023-07-31T15:21:38;6.53;;;4.68;;
79668;SDS011;69136;52.614;6.976;2023-07-31T15:24:27;6.28;;;4.55;;
79668;SDS011;69136;52.614;6.976;2023-07-31T15:27:34;6.90;;;4.22;;
79668;SDS011;69136;52.614;6.976;2023-07-31T15:30:21;6.57;;;4.45;;
79668;SDS011;69136;52.614;6.976;2023-07-31T15:33:12;5.45;;;4.13;;
79668;SDS011;69136;52.614;6.976;2023-07-31T15:36:03;8.27;;;4.70;;
79668;SDS011;69136;52.614;6.976;2023-07-31T15:38:50;5.93;;;3.92;;
79668;SDS011;69136;52.614;6.976;2023-07-31T15:41:36;6.60;;;4.38;;
79668;SDS011;69136;52.614;6.976;2023-07-31T15:44:23;4.70;;;4.20;;
79668;SDS011;69136;52.614;6.976;2023-07-31T15:47:07;5.78;;;4.22;;
79668;SDS011;69136;52.614;6.976;2023-07-31T15:49:53;7.32;;;4.45;;
79668;SDS011;69136;52.614;6.976;2023-07-31T15:52:44;6.47;;;4.97;;
79668;SDS011;69136;52.614;6.976;2023-07-31T15:55:34;5.72;;;4.18;;
79668;SDS011;69136;52.614;6.976;2023-07-31T15:58:28;4.68;;;3.47;;
79668;SDS011;69136;52.614;6.976;2023-07-31T16:01:12;3.47;;;3.08;;
79668;SDS011;69136;52.614;6.976;2023-07-31T16:03:59;4.00;;;3.45;;
79668;SDS011;69136;52.614;6.976;2023-07-31T16:09:33;3.95;;;2.60;;
79668;SDS011;69136;52.614;6.976;2023-07-31T16:12:17;2.78;;;2.10;;
79668;SDS011;69136;52.614;6.976;2023-07-31T16:15:01;2.20;;;1.55;;
79668;SDS011;69136;52.614;6.976;2023-07-31T16:17:45;2.10;;;1.60;;
79668;SDS011;69136;52.614;6.976;2023-07-31T16:20:29;2.75;;;1.90;;
79668;SDS011;69136;52.614;6.976;2023-07-31T16:23:13;3.28;;;2.00;;
79668;SDS011;69136;52.614;6.976;2023-07-31T16:25:57;2.40;;;1.90;;
79668;SDS011;69136;52.614;6.976;2023-07-31T16:28:41;1.98;;;1.58;;
79668;SDS011;69136;52.614;6.976;2023-07-31T16:31:25;1.70;;;1.30;;
79668;SDS011;69136;52.614;6.976;2023-07-31T16:34:09;2.95;;;1.75;;
79668;SDS011;69136;52.614;6.976;2023-07-31T16:36:54;5.55;;;2.10;;
79668;SDS011;69136;52.614;6.976;2023-07-31T16:39:41;3.10;;;2.20;;
79668;SDS011;69136;52.614;6.976;2023-07-31T16:42:28;2.60;;;1.67;;
79668;SDS011;69136;52.614;6.976;2023-07-31T16:45:13;3.70;;;1.90;;
79668;SDS011;69136;52.614;6.976;2023-07-31T16:47:57;3.00;;;2.33;;
79668;SDS011;69136;52.614;6.976;2023-07-31T16:50:41;4.80;;;2.10;;
79668;SDS011;69136;52.614;6.976;2023-07-31T16:53:25;3.60;;;2.20;;
79668;SDS011;69136;52.614;6.976;2023-07-31T16:56:10;3.65;;;2.47;;
79668;SDS011;69136;52.614;6.976;2023-07-31T16:59:10;4.10;;;2.15;;
79668;SDS011;69136;52.614;6.976;2023-07-31T17:01:54;4.40;;;2.78;;
79668;SDS011;69136;52.614;6.976;2023-07-31T17:04:39;3.15;;;2.45;;
79668;SDS011;69136;52.614;6.976;2023-07-31T17:07:23;5.65;;;2.60;;
79668;SDS011;69136;52.614;6.976;2023-07-31T17:10:07;7.88;;;2.60;;
79668;SDS011;69136;52.614;6.976;2023-07-31T17:12:52;4.35;;;2.20;;
79668;SDS011;69136;52.614;6.976;2023-07-31T17:15:36;4.13;;;2.80;;
79668;SDS011;69136;52.614;6.976;2023-07-31T17:18:20;5.90;;;2.50;;
79668;SDS011;69136;52.614;6.976;2023-07-31T17:21:04;3.55;;;2.50;;
79668;SDS011;69136;52.614;6.976;2023-07-31T17:23:47;3.75;;;2.47;;
79668;SDS011;69136;52.614;6.976;2023-07-31T17:26:32;5.00;;;2.80;;
79668;SDS011;69136;52.614;6.976;2023-07-31T17:29:16;3.67;;;2.70;;
79668;SDS011;69136;52.614;6.976;2023-07-31T17:32:03;4.75;;;2.58;;
79668;SDS011;69136;52.614;6.976;2023-07-31T17:34:47;4.07;;;2.08;;
79668;SDS011;69136;52.614;6.976;2023-07-31T17:37:32;3.65;;;2.20;;
79668;SDS011;69136;52.614;6.976;2023-07-31T17:40:15;5.95;;;2.83;;
79668;SDS011;69136;52.614;6.976;2023-07-31T17:42:59;6.80;;;2.50;;
79668;SDS011;69136;52.614;6.976;2023-07-31T17:45:43;4.25;;;2.13;;
79668;SDS011;69136;52.614;6.976;2023-07-31T17:48:27;3.08;;;2.00;;
79668;SDS011;69136;52.614;6.976;2023-07-31T17:51:11;2.83;;;1.80;;
79668;SDS011;69136;52.614;6.976;2023-07-31T17:53:56;4.80;;;2.03;;
79668;SDS011;69136;52.614;6.976;2023-07-31T17:56:40;3.35;;;1.80;;
79668;SDS011;69136;52.614;6.976;2023-07-31T17:59:24;4.07;;;2.03;;
79668;SDS011;69136;52.614;6.976;2023-07-31T18:02:08;3.78;;;1.95;;
79668;SDS011;69136;52.614;6.976;2023-07-31T18:04:52;3.03;;;1.95;;
79668;SDS011;69136;52.614;6.976;2023-07-31T18:07:36;4.80;;;2.10;;
79668;SDS011;69136;52.614;6.976;2023-07-31T18:10:20;5.47;;;2.55;;
79668;SDS011;69136;52.614;6.976;2023-07-31T18:13:04;4.43;;;1.92;;
79668;SDS011;69136;52.614;6.976;2023-07-31T18:15:48;4.07;;;2.08;;
79668;SDS011;69136;52.614;6.976;2023-07-31T18:18:32;3.60;;;1.92;;
79668;SDS011;69136;52.614;6.976;2023-07-31T18:21:16;3.95;;;1.90;;
79668;SDS011;69136;52.614;6.976;2023-07-31T18:24:00;4.22;;;1.55;;
79668;SDS011;69136;52.614;6.976;2023-07-31T18:26:44;2.28;;;0.70;;
79668;SDS011;69136;52.614;6.976;2023-07-31T18:29:28;0.40;;;0.30;;
79668;SDS011;69136;52.614;6.976;2023-07-31T18:32:12;0.52;;;0.30;;
79668;SDS011;69136;52.614;6.976;2023-07-31T18:34:57;0.45;;;0.30;;